sensor_id;sensor_type;location;lat;lon;timestamp;P1;durP1;ratioP1;P2;durP2;ratioP2
24761;SDS011;12865;51.934;10.330;2023-04-24T00:01:58;1.58;;;1.20;;
24761;SDS011;12865;51.934;10.330;2023-04-24T00:04:44;1.20;;;1.10;;
24761;SDS011;12865;51.934;10.330;2023-04-24T00:09:58;1.92;;;1.00;;
24761;SDS011;12865;51.934;10.330;2023-04-24T00:12:44;2.72;;;1.55;;
24761;SDS011;12865;51.934;10.330;2023-04-24T00:15:30;1.45;;;1.20;;
24761;SDS011;12865;51.934;10.330;2023-04-24T00:18:16;1.00;;;1.00;;
24761;SDS011;12865;51.934;10.330;2023-04-24T00:21:02;2.53;;;1.25;;
24761;SDS011;12865;51.934;10.330;2023-04-24T00:23:48;2.58;;;1.20;;
24761;SDS011;12865;51.934;10.330;2023-04-24T00:26:33;1.10;;;1.00;;
24761;SDS011;12865;51.934;10.330;2023-04-24T00:29:19;2.40;;;1.20;;
24761;SDS011;12865;51.934;10.330;2023-04-24T00:32:05;1.73;;;1.25;;
24761;SDS011;12865;51.934;10.330;2023-04-24T00:34:50;2.22;;;1.20;;
24761;SDS011;12865;51.934;10.330;2023-04-24T00:37:36;1.05;;;0.98;;
24761;SDS011;12865;51.934;10.330;2023-04-24T00:40:22;1.00;;;0.90;;
24761;SDS011;12865;51.934;10.330;2023-04-24T00:43:07;1.23;;;1.08;;
24761;SDS011;12865;51.934;10.330;2023-04-24T00:45:53;1.50;;;1.00;;
24761;SDS011;12865;51.934;10.330;2023-04-24T00:48:40;1.52;;;1.13;;
24761;SDS011;12865;51.934;10.330;2023-04-24T00:51:25;2.63;;;1.30;;
24761;SDS011;12865;51.934;10.330;2023-04-24T00:54:12;1.85;;;1.00;;
24761;SDS011;12865;51.934;10.330;2023-04-24T00:56:58;1.42;;;1.15;;
24761;SDS011;12865;51.934;10.330;2023-04-24T00:59:46;1.60;;;1.20;;
24761;SDS011;12865;51.934;10.330;2023-04-24T01:02:32;1.08;;;1.08;;
24761;SDS011;12865;51.934;10.330;2023-04-24T01:05:19;2.15;;;1.10;;
24761;SDS011;12865;51.934;10.330;2023-04-24T01:08:05;2.50;;;1.10;;
24761;SDS011;12865;51.934;10.330;2023-04-24T01:10:52;1.70;;;1.20;;
24761;SDS011;12865;51.934;10.330;2023-04-24T01:13:38;1.10;;;1.00;;
24761;SDS011;12865;51.934;10.330;2023-04-24T01:16:24;2.33;;;1.27;;
24761;SDS011;12865;51.934;10.330;2023-04-24T01:19:10;2.05;;;1.00;;
24761;SDS011;12865;51.934;10.330;2023-04-24T01:21:57;1.58;;;1.13;;
24761;SDS011;12865;51.934;10.330;2023-04-24T01:24:47;1.50;;;1.20;;
24761;SDS011;12865;51.934;10.330;2023-04-24T01:27:33;1.25;;;1.15;;
24761;SDS011;12865;51.934;10.330;2023-04-24T01:30:18;1.52;;;1.30;;
24761;SDS011;12865;51.934;10.330;2023-04-24T01:33:04;1.20;;;1.10;;
24761;SDS011;12865;51.934;10.330;2023-04-24T01:35:50;1.20;;;1.00;;
24761;SDS011;12865;51.934;10.330;2023-04-24T01:38:36;2.25;;;0.90;;
24761;SDS011;12865;51.934;10.330;2023-04-24T01:41:22;3.38;;;1.02;;
24761;SDS011;12865;51.934;10.330;2023-04-24T01:44:08;2.95;;;1.00;;
24761;SDS011;12865;51.934;10.330;2023-04-24T01:46:55;1.58;;;1.20;;
24761;SDS011;12865;51.934;10.330;2023-04-24T01:49:40;1.00;;;0.90;;
24761;SDS011;12865;51.934;10.330;2023-04-24T01:52:26;2.50;;;1.10;;
24761;SDS011;12865;51.934;10.330;2023-04-24T01:55:14;1.55;;;1.05;;
24761;SDS011;12865;51.934;10.330;2023-04-24T01:58:00;1.63;;;1.10;;
24761;SDS011;12865;51.934;10.330;2023-04-24T02:00:46;1.17;;;0.95;;
24761;SDS011;12865;51.934;10.330;2023-04-24T02:03:32;1.02;;;0.90;;
24761;SDS011;12865;51.934;10.330;2023-04-24T02:06:17;1.15;;;0.88;;
24761;SDS011;12865;51.934;10.330;2023-04-24T02:09:03;1.35;;;1.00;;
24761;SDS011;12865;51.934;10.330;2023-04-24T02:11:49;2.03;;;0.90;;
24761;SDS011;12865;51.934;10.330;2023-04-24T02:14:35;0.75;;;0.75;;
24761;SDS011;12865;51.934;10.330;2023-04-24T02:17:20;0.80;;;0.80;;
24761;SDS011;12865;51.934;10.330;2023-04-24T02:20:06;0.93;;;0.70;;
24761;SDS011;12865;51.934;10.330;2023-04-24T02:22:52;0.73;;;0.70;;
24761;SDS011;12865;51.934;10.330;2023-04-24T02:25:38;1.48;;;0.90;;
24761;SDS011;12865;51.934;10.330;2023-04-24T02:28:24;0.70;;;0.70;;
24761;SDS011;12865;51.934;10.330;2023-04-24T02:31:09;0.93;;;0.75;;
24761;SDS011;12865;51.934;10.330;2023-04-24T02:33:55;1.00;;;0.90;;
24761;SDS011;12865;51.934;10.330;2023-04-24T02:36:41;1.20;;;0.80;;
24761;SDS011;12865;51.934;10.330;2023-04-24T02:39:27;1.48;;;0.68;;
24761;SDS011;12865;51.934;10.330;2023-04-24T02:42:12;1.08;;;0.80;;
24761;SDS011;12865;51.934;10.330;2023-04-24T02:44:58;1.20;;;0.80;;
24761;SDS011;12865;51.934;10.330;2023-04-24T02:47:43;0.98;;;0.80;;
24761;SDS011;12865;51.934;10.330;2023-04-24T02:50:30;5.60;;;0.90;;
24761;SDS011;12865;51.934;10.330;2023-04-24T02:53:16;1.40;;;0.85;;
24761;SDS011;12865;51.934;10.330;2023-04-24T02:56:02;1.45;;;0.80;;
24761;SDS011;12865;51.934;10.330;2023-04-24T02:58:47;0.80;;;0.80;;
24761;SDS011;12865;51.934;10.330;2023-04-24T03:01:33;2.08;;;0.80;;
24761;SDS011;12865;51.934;10.330;2023-04-24T03:04:18;2.47;;;0.95;;
24761;SDS011;12865;51.934;10.330;2023-04-24T03:07:05;2.00;;;0.90;;
24761;SDS011;12865;51.934;10.330;2023-04-24T03:09:51;0.70;;;0.70;;
24761;SDS011;12865;51.934;10.330;2023-04-24T03:12:36;2.35;;;0.82;;
24761;SDS011;12865;51.934;10.330;2023-04-24T03:15:22;2.70;;;1.10;;
24761;SDS011;12865;51.934;10.330;2023-04-24T03:18:08;1.20;;;0.93;;
24761;SDS011;12865;51.934;10.330;2023-04-24T03:20:53;1.95;;;0.77;;
24761;SDS011;12865;51.934;10.330;2023-04-24T03:23:39;3.22;;;1.17;;
24761;SDS011;12865;51.934;10.330;2023-04-24T03:26:25;0.93;;;0.70;;
24761;SDS011;12865;51.934;10.330;2023-04-24T03:29:11;1.10;;;0.80;;
24761;SDS011;12865;51.934;10.330;2023-04-24T03:31:56;1.40;;;1.10;;
24761;SDS011;12865;51.934;10.330;2023-04-24T03:34:42;0.80;;;0.80;;
24761;SDS011;12865;51.934;10.330;2023-04-24T03:37:28;0.80;;;0.80;;
24761;SDS011;12865;51.934;10.330;2023-04-24T03:40:13;3.65;;;1.00;;
24761;SDS011;12865;51.934;10.330;2023-04-24T03:42:59;1.50;;;0.75;;
24761;SDS011;12865;51.934;10.330;2023-04-24T03:45:44;0.90;;;0.90;;
24761;SDS011;12865;51.934;10.330;2023-04-24T03:48:30;1.63;;;1.00;;
24761;SDS011;12865;51.934;10.330;2023-04-24T03:51:16;1.67;;;0.90;;
24761;SDS011;12865;51.934;10.330;2023-04-24T03:54:01;1.90;;;1.05;;
24761;SDS011;12865;51.934;10.330;2023-04-24T03:56:48;1.90;;;0.85;;
24761;SDS011;12865;51.934;10.330;2023-04-24T03:59:34;0.68;;;0.68;;
24761;SDS011;12865;51.934;10.330;2023-04-24T04:02:19;0.90;;;0.90;;
24761;SDS011;12865;51.934;10.330;2023-04-24T04:05:05;2.72;;;1.00;;
24761;SDS011;12865;51.934;10.330;2023-04-24T04:07:51;1.58;;;1.00;;
24761;SDS011;12865;51.934;10.330;2023-04-24T04:10:36;1.15;;;0.80;;
24761;SDS011;12865;51.934;10.330;2023-04-24T04:13:22;3.95;;;1.00;;
24761;SDS011;12865;51.934;10.330;2023-04-24T04:16:08;1.45;;;0.90;;
24761;SDS011;12865;51.934;10.330;2023-04-24T04:18:54;0.70;;;0.68;;
24761;SDS011;12865;51.934;10.330;2023-04-24T04:21:40;1.23;;;0.85;;
24761;SDS011;12865;51.934;10.330;2023-04-24T04:24:26;2.05;;;0.90;;
24761;SDS011;12865;51.934;10.330;2023-04-24T04:27:11;1.90;;;0.98;;
24761;SDS011;12865;51.934;10.330;2023-04-24T04:29:58;1.65;;;1.00;;
24761;SDS011;12865;51.934;10.330;2023-04-24T04:32:46;1.52;;;1.00;;
24761;SDS011;12865;51.934;10.330;2023-04-24T04:35:32;1.83;;;1.00;;
24761;SDS011;12865;51.934;10.330;2023-04-24T04:38:18;1.23;;;1.13;;
24761;SDS011;12865;51.934;10.330;2023-04-24T04:41:04;1.25;;;1.13;;
24761;SDS011;12865;51.934;10.330;2023-04-24T04:43:50;1.95;;;1.08;;
24761;SDS011;12865;51.934;10.330;2023-04-24T04:46:38;3.65;;;1.23;;
24761;SDS011;12865;51.934;10.330;2023-04-24T04:49:23;1.83;;;1.35;;
24761;SDS011;12865;51.934;10.330;2023-04-24T04:52:09;3.75;;;1.27;;
24761;SDS011;12865;51.934;10.330;2023-04-24T04:54:55;2.58;;;1.60;;
24761;SDS011;12865;51.934;10.330;2023-04-24T04:57:40;1.98;;;1.40;;
24761;SDS011;12865;51.934;10.330;2023-04-24T05:00:26;1.40;;;1.10;;
24761;SDS011;12865;51.934;10.330;2023-04-24T05:03:12;2.75;;;1.25;;
24761;SDS011;12865;51.934;10.330;2023-04-24T05:05:58;1.88;;;1.20;;
24761;SDS011;12865;51.934;10.330;2023-04-24T05:08:44;3.38;;;1.30;;
24761;SDS011;12865;51.934;10.330;2023-04-24T05:11:29;1.40;;;1.20;;
24761;SDS011;12865;51.934;10.330;2023-04-24T05:14:15;3.03;;;1.10;;
24761;SDS011;12865;51.934;10.330;2023-04-24T05:17:03;2.08;;;1.40;;
24761;SDS011;12865;51.934;10.330;2023-04-24T05:19:49;1.50;;;1.40;;
24761;SDS011;12865;51.934;10.330;2023-04-24T05:22:34;1.30;;;1.20;;
24761;SDS011;12865;51.934;10.330;2023-04-24T05:25:21;2.08;;;1.15;;
24761;SDS011;12865;51.934;10.330;2023-04-24T05:28:06;2.58;;;1.40;;
24761;SDS011;12865;51.934;10.330;2023-04-24T05:30:52;1.20;;;1.10;;
24761;SDS011;12865;51.934;10.330;2023-04-24T05:33:38;2.97;;;1.10;;
24761;SDS011;12865;51.934;10.330;2023-04-24T05:36:24;3.13;;;1.25;;
24761;SDS011;12865;51.934;10.330;2023-04-24T05:39:09;1.40;;;1.30;;
24761;SDS011;12865;51.934;10.330;2023-04-24T05:41:55;3.03;;;1.50;;
24761;SDS011;12865;51.934;10.330;2023-04-24T05:44:43;1.85;;;1.30;;
24761;SDS011;12865;51.934;10.330;2023-04-24T05:47:28;1.20;;;1.13;;
24761;SDS011;12865;51.934;10.330;2023-04-24T05:50:14;2.22;;;1.35;;
24761;SDS011;12865;51.934;10.330;2023-04-24T05:53:00;1.50;;;1.40;;
24761;SDS011;12865;51.934;10.330;2023-04-24T05:55:47;1.30;;;1.20;;
24761;SDS011;12865;51.934;10.330;2023-04-24T05:58:33;2.45;;;1.20;;
24761;SDS011;12865;51.934;10.330;2023-04-24T06:01:18;1.20;;;1.10;;
24761;SDS011;12865;51.934;10.330;2023-04-24T06:04:04;1.30;;;1.00;;
24761;SDS011;12865;51.934;10.330;2023-04-24T06:06:51;1.23;;;1.13;;
24761;SDS011;12865;51.934;10.330;2023-04-24T06:09:40;2.45;;;1.30;;
24761;SDS011;12865;51.934;10.330;2023-04-24T06:12:26;1.40;;;1.33;;
24761;SDS011;12865;51.934;10.330;2023-04-24T06:15:12;2.83;;;1.23;;
24761;SDS011;12865;51.934;10.330;2023-04-24T06:17:58;2.00;;;1.48;;
24761;SDS011;12865;51.934;10.330;2023-04-24T06:20:44;5.70;;;3.97;;
24761;SDS011;12865;51.934;10.330;2023-04-24T06:23:30;3.83;;;3.20;;
24761;SDS011;12865;51.934;10.330;2023-04-24T06:26:17;1.42;;;1.33;;
24761;SDS011;12865;51.934;10.330;2023-04-24T06:29:03;1.30;;;1.20;;
24761;SDS011;12865;51.934;10.330;2023-04-24T06:31:49;1.70;;;1.20;;
24761;SDS011;12865;51.934;10.330;2023-04-24T06:34:35;2.55;;;0.93;;
24761;SDS011;12865;51.934;10.330;2023-04-24T06:37:21;1.55;;;1.10;;
24761;SDS011;12865;51.934;10.330;2023-04-24T06:40:07;1.17;;;1.08;;
24761;SDS011;12865;51.934;10.330;2023-04-24T06:42:53;1.63;;;0.82;;
24761;SDS011;12865;51.934;10.330;2023-04-24T06:45:39;1.10;;;1.00;;
24761;SDS011;12865;51.934;10.330;2023-04-24T06:48:25;1.33;;;0.88;;
24761;SDS011;12865;51.934;10.330;2023-04-24T06:51:11;0.80;;;0.80;;
24761;SDS011;12865;51.934;10.330;2023-04-24T06:53:57;1.70;;;1.00;;
24761;SDS011;12865;51.934;10.330;2023-04-24T06:56:42;1.30;;;1.20;;
24761;SDS011;12865;51.934;10.330;2023-04-24T06:59:28;2.42;;;1.13;;
24761;SDS011;12865;51.934;10.330;2023-04-24T07:02:14;0.93;;;0.90;;
24761;SDS011;12865;51.934;10.330;2023-04-24T07:04:59;2.53;;;0.98;;
24761;SDS011;12865;51.934;10.330;2023-04-24T07:07:47;1.23;;;1.10;;
24761;SDS011;12865;51.934;10.330;2023-04-24T07:10:32;2.67;;;1.33;;
24761;SDS011;12865;51.934;10.330;2023-04-24T07:13:19;1.45;;;1.20;;
24761;SDS011;12865;51.934;10.330;2023-04-24T07:16:05;1.42;;;1.17;;
24761;SDS011;12865;51.934;10.330;2023-04-24T07:18:50;1.30;;;1.20;;
24761;SDS011;12865;51.934;10.330;2023-04-24T07:21:36;1.30;;;1.20;;
24761;SDS011;12865;51.934;10.330;2023-04-24T07:24:22;1.80;;;1.63;;
24761;SDS011;12865;51.934;10.330;2023-04-24T07:27:08;1.40;;;1.30;;
24761;SDS011;12865;51.934;10.330;2023-04-24T07:29:53;2.60;;;1.73;;
24761;SDS011;12865;51.934;10.330;2023-04-24T07:32:39;2.35;;;1.70;;
24761;SDS011;12865;51.934;10.330;2023-04-24T07:35:25;1.75;;;1.65;;
24761;SDS011;12865;51.934;10.330;2023-04-24T07:38:12;1.88;;;1.60;;
24761;SDS011;12865;51.934;10.330;2023-04-24T07:40:58;2.75;;;1.75;;
24761;SDS011;12865;51.934;10.330;2023-04-24T07:43:43;3.55;;;1.90;;
24761;SDS011;12865;51.934;10.330;2023-04-24T07:46:30;2.97;;;2.40;;
24761;SDS011;12865;51.934;10.330;2023-04-24T07:49:15;3.67;;;2.80;;
24761;SDS011;12865;51.934;10.330;2023-04-24T07:52:01;3.45;;;2.10;;
24761;SDS011;12865;51.934;10.330;2023-04-24T07:54:47;2.55;;;2.35;;
24761;SDS011;12865;51.934;10.330;2023-04-24T07:57:33;2.65;;;2.28;;
24761;SDS011;12865;51.934;10.330;2023-04-24T08:00:19;2.70;;;2.50;;
24761;SDS011;12865;51.934;10.330;2023-04-24T08:03:05;2.78;;;2.50;;
24761;SDS011;12865;51.934;10.330;2023-04-24T08:05:51;2.67;;;2.25;;
24761;SDS011;12865;51.934;10.330;2023-04-24T08:08:36;3.58;;;2.10;;
24761;SDS011;12865;51.934;10.330;2023-04-24T08:11:22;2.28;;;2.08;;
24761;SDS011;12865;51.934;10.330;2023-04-24T08:14:08;3.08;;;2.25;;
24761;SDS011;12865;51.934;10.330;2023-04-24T08:16:54;2.58;;;2.28;;
24761;SDS011;12865;51.934;10.330;2023-04-24T08:19:41;2.65;;;2.45;;
24761;SDS011;12865;51.934;10.330;2023-04-24T08:22:33;2.35;;;2.08;;
24761;SDS011;12865;51.934;10.330;2023-04-24T08:25:19;4.03;;;2.22;;
24761;SDS011;12865;51.934;10.330;2023-04-24T08:28:05;2.35;;;2.15;;
24761;SDS011;12865;51.934;10.330;2023-04-24T08:30:53;2.42;;;2.00;;
24761;SDS011;12865;51.934;10.330;2023-04-24T08:33:40;2.40;;;2.20;;
24761;SDS011;12865;51.934;10.330;2023-04-24T08:36:26;2.38;;;2.17;;
24761;SDS011;12865;51.934;10.330;2023-04-24T08:39:12;2.72;;;2.40;;
24761;SDS011;12865;51.934;10.330;2023-04-24T08:41:58;2.50;;;2.30;;
24761;SDS011;12865;51.934;10.330;2023-04-24T08:44:50;3.00;;;2.80;;
24761;SDS011;12865;51.934;10.330;2023-04-24T08:47:36;2.55;;;2.35;;
24761;SDS011;12865;51.934;10.330;2023-04-24T08:50:24;3.50;;;2.90;;
24761;SDS011;12865;51.934;10.330;2023-04-24T08:53:10;3.45;;;3.15;;
24761;SDS011;12865;51.934;10.330;2023-04-24T08:55:56;3.97;;;3.67;;
24761;SDS011;12865;51.934;10.330;2023-04-24T08:58:42;3.60;;;3.30;;
24761;SDS011;12865;51.934;10.330;2023-04-24T09:01:28;7.00;;;4.10;;
24761;SDS011;12865;51.934;10.330;2023-04-24T09:04:14;3.65;;;3.25;;
24761;SDS011;12865;51.934;10.330;2023-04-24T09:07:01;3.53;;;3.25;;
24761;SDS011;12865;51.934;10.330;2023-04-24T09:09:48;6.95;;;3.42;;
24761;SDS011;12865;51.934;10.330;2023-04-24T09:12:36;3.17;;;2.72;;
24761;SDS011;12865;51.934;10.330;2023-04-24T09:15:21;3.20;;;2.90;;
24761;SDS011;12865;51.934;10.330;2023-04-24T09:18:07;3.70;;;2.70;;
24761;SDS011;12865;51.934;10.330;2023-04-24T09:21:00;3.20;;;2.97;;
24761;SDS011;12865;51.934;10.330;2023-04-24T09:23:47;3.20;;;3.00;;
24761;SDS011;12865;51.934;10.330;2023-04-24T09:26:43;3.53;;;3.30;;
24761;SDS011;12865;51.934;10.330;2023-04-24T09:29:29;3.50;;;3.20;;
24761;SDS011;12865;51.934;10.330;2023-04-24T09:32:20;3.38;;;2.70;;
24761;SDS011;12865;51.934;10.330;2023-04-24T09:35:08;3.85;;;2.63;;
24761;SDS011;12865;51.934;10.330;2023-04-24T09:37:57;3.53;;;2.90;;
24761;SDS011;12865;51.934;10.330;2023-04-24T09:40:43;2.90;;;2.70;;
24761;SDS011;12865;51.934;10.330;2023-04-24T09:43:29;3.08;;;2.88;;
24761;SDS011;12865;51.934;10.330;2023-04-24T09:46:15;3.03;;;2.80;;
24761;SDS011;12865;51.934;10.330;2023-04-24T09:49:14;2.88;;;2.65;;
24761;SDS011;12865;51.934;10.330;2023-04-24T09:54:53;3.83;;;2.80;;
24761;SDS011;12865;51.934;10.330;2023-04-24T10:00:35;2.80;;;2.42;;
24761;SDS011;12865;51.934;10.330;2023-04-24T10:03:23;2.63;;;2.42;;
24761;SDS011;12865;51.934;10.330;2023-04-24T10:06:11;3.03;;;2.78;;
24761;SDS011;12865;51.934;10.330;2023-04-24T10:08:58;3.42;;;2.38;;
24761;SDS011;12865;51.934;10.330;2023-04-24T10:11:44;2.22;;;2.13;;
24761;SDS011;12865;51.934;10.330;2023-04-24T10:14:32;2.33;;;2.20;;
24761;SDS011;12865;51.934;10.330;2023-04-24T10:17:17;3.40;;;2.17;;
24761;SDS011;12865;51.934;10.330;2023-04-24T10:20:05;2.30;;;2.10;;
24761;SDS011;12865;51.934;10.330;2023-04-24T10:22:52;2.25;;;2.15;;
24761;SDS011;12865;51.934;10.330;2023-04-24T10:25:38;3.33;;;2.50;;
24761;SDS011;12865;51.934;10.330;2023-04-24T10:28:24;5.45;;;2.63;;
24761;SDS011;12865;51.934;10.330;2023-04-24T10:31:13;2.88;;;2.28;;
24761;SDS011;12865;51.934;10.330;2023-04-24T10:33:59;2.55;;;2.35;;
24761;SDS011;12865;51.934;10.330;2023-04-24T10:36:48;2.67;;;2.40;;
24761;SDS011;12865;51.934;10.330;2023-04-24T10:39:36;3.30;;;2.78;;
24761;SDS011;12865;51.934;10.330;2023-04-24T10:42:26;3.22;;;2.45;;
24761;SDS011;12865;51.934;10.330;2023-04-24T10:45:17;4.30;;;2.40;;
24761;SDS011;12865;51.934;10.330;2023-04-24T10:48:04;4.88;;;2.08;;
24761;SDS011;12865;51.934;10.330;2023-04-24T10:50:56;2.97;;;2.30;;
24761;SDS011;12865;51.934;10.330;2023-04-24T10:53:41;3.75;;;2.78;;
24761;SDS011;12865;51.934;10.330;2023-04-24T10:56:27;3.97;;;3.58;;
24761;SDS011;12865;51.934;10.330;2023-04-24T10:59:13;2.80;;;2.60;;
24761;SDS011;12865;51.934;10.330;2023-04-24T11:02:10;3.55;;;2.83;;
24761;SDS011;12865;51.934;10.330;2023-04-24T11:04:55;3.10;;;2.90;;
24761;SDS011;12865;51.934;10.330;2023-04-24T11:08:15;5.85;;;2.53;;
24761;SDS011;12865;51.934;10.330;2023-04-24T11:11:02;2.83;;;2.63;;
24761;SDS011;12865;51.934;10.330;2023-04-24T11:16:53;2.60;;;2.00;;
24761;SDS011;12865;51.934;10.330;2023-04-24T11:19:42;3.67;;;2.50;;
24761;SDS011;12865;51.934;10.330;2023-04-24T11:22:28;3.38;;;2.33;;
24761;SDS011;12865;51.934;10.330;2023-04-24T11:25:18;3.38;;;2.78;;
24761;SDS011;12865;51.934;10.330;2023-04-24T11:28:04;2.85;;;2.65;;
24761;SDS011;12865;51.934;10.330;2023-04-24T11:30:51;3.20;;;3.00;;
24761;SDS011;12865;51.934;10.330;2023-04-24T11:33:38;3.60;;;3.30;;
24761;SDS011;12865;51.934;10.330;2023-04-24T11:36:23;2.45;;;2.33;;
24761;SDS011;12865;51.934;10.330;2023-04-24T11:39:10;3.42;;;2.75;;
24761;SDS011;12865;51.934;10.330;2023-04-24T11:42:01;3.42;;;2.45;;
24761;SDS011;12865;51.934;10.330;2023-04-24T11:44:49;3.42;;;2.50;;
24761;SDS011;12865;51.934;10.330;2023-04-24T11:47:35;2.72;;;2.53;;
24761;SDS011;12865;51.934;10.330;2023-04-24T11:50:22;2.90;;;2.67;;
24761;SDS011;12865;51.934;10.330;2023-04-24T11:53:11;2.85;;;2.65;;
24761;SDS011;12865;51.934;10.330;2023-04-24T11:55:58;3.10;;;2.80;;
24761;SDS011;12865;51.934;10.330;2023-04-24T11:58:48;5.07;;;3.05;;
24761;SDS011;12865;51.934;10.330;2023-04-24T12:01:42;3.10;;;2.72;;
24761;SDS011;12865;51.934;10.330;2023-04-24T12:04:38;3.75;;;3.10;;
24761;SDS011;12865;51.934;10.330;2023-04-24T12:07:25;3.28;;;2.75;;
24761;SDS011;12865;51.934;10.330;2023-04-24T12:10:11;2.92;;;2.17;;
24761;SDS011;12865;51.934;10.330;2023-04-24T12:12:57;2.30;;;2.10;;
24761;SDS011;12865;51.934;10.330;2023-04-24T12:15:44;2.38;;;2.10;;
24761;SDS011;12865;51.934;10.330;2023-04-24T12:18:30;1.40;;;1.38;;
24761;SDS011;12865;51.934;10.330;2023-04-24T12:21:17;1.48;;;1.38;;
24761;SDS011;12865;51.934;10.330;2023-04-24T12:24:06;1.00;;;1.00;;
24761;SDS011;12865;51.934;10.330;2023-04-24T12:26:52;1.05;;;1.00;;
24761;SDS011;12865;51.934;10.330;2023-04-24T12:29:50;1.65;;;0.90;;
24761;SDS011;12865;51.934;10.330;2023-04-24T12:32:43;0.98;;;0.90;;
24761;SDS011;12865;51.934;10.330;2023-04-24T12:35:33;0.80;;;0.80;;
24761;SDS011;12865;51.934;10.330;2023-04-24T12:38:25;1.92;;;0.77;;
24761;SDS011;12865;51.934;10.330;2023-04-24T12:41:12;0.77;;;0.77;;
24761;SDS011;12865;51.934;10.330;2023-04-24T12:43:59;0.90;;;0.90;;
24761;SDS011;12865;51.934;10.330;2023-04-24T12:46:44;0.85;;;0.60;;
24761;SDS011;12865;51.934;10.330;2023-04-24T12:49:30;0.82;;;0.82;;
24761;SDS011;12865;51.934;10.330;2023-04-24T12:52:16;0.70;;;0.70;;
24761;SDS011;12865;51.934;10.330;2023-04-24T12:55:02;0.80;;;0.80;;
24761;SDS011;12865;51.934;10.330;2023-04-24T12:57:50;1.00;;;0.68;;
24761;SDS011;12865;51.934;10.330;2023-04-24T13:00:36;0.80;;;0.80;;
24761;SDS011;12865;51.934;10.330;2023-04-24T13:03:22;0.55;;;0.55;;
24761;SDS011;12865;51.934;10.330;2023-04-24T13:06:07;1.35;;;0.60;;
24761;SDS011;12865;51.934;10.330;2023-04-24T13:08:53;0.95;;;0.60;;
24761;SDS011;12865;51.934;10.330;2023-04-24T13:11:40;0.50;;;0.50;;
24761;SDS011;12865;51.934;10.330;2023-04-24T13:14:26;0.60;;;0.50;;
24761;SDS011;12865;51.934;10.330;2023-04-24T13:17:11;1.50;;;0.60;;
24761;SDS011;12865;51.934;10.330;2023-04-24T13:19:58;0.88;;;0.50;;
24761;SDS011;12865;51.934;10.330;2023-04-24T13:22:44;0.70;;;0.70;;
24761;SDS011;12865;51.934;10.330;2023-04-24T13:25:34;1.63;;;0.55;;
24761;SDS011;12865;51.934;10.330;2023-04-24T13:28:21;0.82;;;0.82;;
24761;SDS011;12865;51.934;10.330;2023-04-24T13:31:06;0.40;;;0.40;;
24761;SDS011;12865;51.934;10.330;2023-04-24T13:33:52;0.68;;;0.68;;
24761;SDS011;12865;51.934;10.330;2023-04-24T13:36:38;0.40;;;0.40;;
24761;SDS011;12865;51.934;10.330;2023-04-24T13:39:23;0.50;;;0.50;;
24761;SDS011;12865;51.934;10.330;2023-04-24T13:42:10;0.30;;;0.30;;
24761;SDS011;12865;51.934;10.330;2023-04-24T13:44:56;0.70;;;0.32;;
24761;SDS011;12865;51.934;10.330;2023-04-24T13:47:41;0.30;;;0.30;;
24761;SDS011;12865;51.934;10.330;2023-04-24T13:50:27;2.75;;;0.40;;
24761;SDS011;12865;51.934;10.330;2023-04-24T13:53:13;0.35;;;0.20;;
24761;SDS011;12865;51.934;10.330;2023-04-24T13:55:58;0.20;;;0.20;;
24761;SDS011;12865;51.934;10.330;2023-04-24T13:58:44;0.30;;;0.13;;
24761;SDS011;12865;51.934;10.330;2023-04-24T14:01:29;0.17;;;0.17;;
24761;SDS011;12865;51.934;10.330;2023-04-24T14:04:16;0.35;;;0.32;;
24761;SDS011;12865;51.934;10.330;2023-04-24T14:07:02;1.10;;;0.38;;
24761;SDS011;12865;51.934;10.330;2023-04-24T14:09:47;0.40;;;0.40;;
24761;SDS011;12865;51.934;10.330;2023-04-24T14:12:33;0.20;;;0.20;;
24761;SDS011;12865;51.934;10.330;2023-04-24T14:15:19;0.28;;;0.28;;
24761;SDS011;12865;51.934;10.330;2023-04-24T14:18:05;0.38;;;0.38;;
24761;SDS011;12865;51.934;10.330;2023-04-24T14:20:50;0.40;;;0.40;;
24761;SDS011;12865;51.934;10.330;2023-04-24T14:23:36;0.38;;;0.38;;
24761;SDS011;12865;51.934;10.330;2023-04-24T14:26:21;0.43;;;0.43;;
24761;SDS011;12865;51.934;10.330;2023-04-24T14:29:07;0.40;;;0.40;;
24761;SDS011;12865;51.934;10.330;2023-04-24T14:31:53;0.32;;;0.32;;
24761;SDS011;12865;51.934;10.330;2023-04-24T14:34:39;0.50;;;0.45;;
24761;SDS011;12865;51.934;10.330;2023-04-24T14:37:24;0.93;;;0.40;;
24761;SDS011;12865;51.934;10.330;2023-04-24T14:40:10;0.50;;;0.50;;
24761;SDS011;12865;51.934;10.330;2023-04-24T14:42:56;0.50;;;0.50;;
24761;SDS011;12865;51.934;10.330;2023-04-24T14:45:43;0.70;;;0.70;;
24761;SDS011;12865;51.934;10.330;2023-04-24T14:48:28;0.63;;;0.63;;
24761;SDS011;12865;51.934;10.330;2023-04-24T14:51:14;1.00;;;0.90;;
24761;SDS011;12865;51.934;10.330;2023-04-24T14:54:00;0.95;;;0.95;;
24761;SDS011;12865;51.934;10.330;2023-04-24T14:56:46;0.90;;;0.90;;
24761;SDS011;12865;51.934;10.330;2023-04-24T14:59:31;0.88;;;0.88;;
24761;SDS011;12865;51.934;10.330;2023-04-24T15:02:17;0.93;;;0.93;;
24761;SDS011;12865;51.934;10.330;2023-04-24T15:05:03;0.65;;;0.65;;
24761;SDS011;12865;51.934;10.330;2023-04-24T15:07:49;0.93;;;0.90;;
24761;SDS011;12865;51.934;10.330;2023-04-24T15:10:35;0.90;;;0.90;;
24761;SDS011;12865;51.934;10.330;2023-04-24T15:13:20;0.98;;;0.98;;
24761;SDS011;12865;51.934;10.330;2023-04-24T15:16:06;0.95;;;0.90;;
24761;SDS011;12865;51.934;10.330;2023-04-24T15:18:52;1.20;;;1.10;;
24761;SDS011;12865;51.934;10.330;2023-04-24T15:21:38;1.08;;;1.00;;
24761;SDS011;12865;51.934;10.330;2023-04-24T15:24:25;1.25;;;1.20;;
24761;SDS011;12865;51.934;10.330;2023-04-24T15:27:11;1.40;;;1.30;;
24761;SDS011;12865;51.934;10.330;2023-04-24T15:29:57;1.45;;;1.35;;
24761;SDS011;12865;51.934;10.330;2023-04-24T15:32:43;1.50;;;1.40;;
24761;SDS011;12865;51.934;10.330;2023-04-24T15:35:29;1.33;;;1.23;;
24761;SDS011;12865;51.934;10.330;2023-04-24T15:38:15;2.22;;;1.88;;
24761;SDS011;12865;51.934;10.330;2023-04-24T15:41:01;2.67;;;1.85;;
24761;SDS011;12865;51.934;10.330;2023-04-24T15:43:46;2.95;;;1.90;;
24761;SDS011;12865;51.934;10.330;2023-04-24T15:46:33;1.67;;;1.60;;
24761;SDS011;12865;51.934;10.330;2023-04-24T15:49:19;2.17;;;1.98;;
24761;SDS011;12865;51.934;10.330;2023-04-24T15:52:05;2.50;;;1.80;;
24761;SDS011;12865;51.934;10.330;2023-04-24T15:54:51;4.90;;;2.30;;
24761;SDS011;12865;51.934;10.330;2023-04-24T15:57:37;3.00;;;2.70;;
24761;SDS011;12865;51.934;10.330;2023-04-24T16:00:23;5.22;;;3.22;;
24761;SDS011;12865;51.934;10.330;2023-04-24T16:03:08;4.40;;;3.47;;
24761;SDS011;12865;51.934;10.330;2023-04-24T16:05:54;3.80;;;3.42;;
24761;SDS011;12865;51.934;10.330;2023-04-24T16:08:40;5.60;;;3.80;;
24761;SDS011;12865;51.934;10.330;2023-04-24T16:11:26;7.07;;;4.18;;
24761;SDS011;12865;51.934;10.330;2023-04-24T16:14:11;5.85;;;4.40;;
24761;SDS011;12865;51.934;10.330;2023-04-24T16:16:57;6.45;;;4.75;;
24761;SDS011;12865;51.934;10.330;2023-04-24T16:19:42;5.80;;;4.93;;
24761;SDS011;12865;51.934;10.330;2023-04-24T16:22:28;7.47;;;5.85;;
24761;SDS011;12865;51.934;10.330;2023-04-24T16:25:14;6.93;;;5.57;;
24761;SDS011;12865;51.934;10.330;2023-04-24T16:27:59;7.90;;;5.90;;
24761;SDS011;12865;51.934;10.330;2023-04-24T16:30:45;7.32;;;4.60;;
24761;SDS011;12865;51.934;10.330;2023-04-24T16:33:31;6.55;;;5.40;;
24761;SDS011;12865;51.934;10.330;2023-04-24T16:36:17;6.60;;;5.90;;
24761;SDS011;12865;51.934;10.330;2023-04-24T16:39:04;8.27;;;6.28;;